sensor_id;sensor_type;location;lat;lon;timestamp;temperature;humidity
4615;DHT22;2320;51.362;6.946;2023-04-08T00:02:07;9.90;99.90
4615;DHT22;2320;51.362;6.946;2023-04-08T00:04:32;10.00;99.90
4615;DHT22;2320;51.362;6.946;2023-04-08T00:06:58;9.90;99.90
4615;DHT22;2320;51.362;6.946;2023-04-08T00:09:23;10.00;99.90
4615;DHT22;2320;51.362;6.946;2023-04-08T00:11:49;10.00;99.90
4615;DHT22;2320;51.362;6.946;2023-04-08T00:14:14;9.90;99.90
4615;DHT22;2320;51.362;6.946;2023-04-08T00:16:40;10.10;99.90
4615;DHT22;2320;51.362;6.946;2023-04-08T00:19:05;10.10;99.90
4615;DHT22;2320;51.362;6.946;2023-04-08T00:21:31;10.00;99.90
4615;DHT22;2320;51.362;6.946;2023-04-08T00:23:56;10.00;99.90
4615;DHT22;2320;51.362;6.946;2023-04-08T00:26:22;10.00;99.90
4615;DHT22;2320;51.362;6.946;2023-04-08T00:28:47;9.90;99.90
4615;DHT22;2320;51.362;6.946;2023-04-08T00:31:13;9.90;99.90
4615;DHT22;2320;51.362;6.946;2023-04-08T00:33:38;9.90;99.90
4615;DHT22;2320;51.362;6.946;2023-04-08T00:36:04;9.90;99.90
4615;DHT22;2320;51.362;6.946;2023-04-08T00:38:29;9.80;99.90
4615;DHT22;2320;51.362;6.946;2023-04-08T00:40:55;9.70;99.90
4615;DHT22;2320;51.362;6.946;2023-04-08T00:43:20;9.60;99.90
4615;DHT22;2320;51.362;6.946;2023-04-08T00:45:46;9.60;99.90
4615;DHT22;2320;51.362;6.946;2023-04-08T00:48:12;9.70;99.90
4615;DHT22;2320;51.362;6.946;2023-04-08T00:50:37;9.80;99.90
4615;DHT22;2320;51.362;6.946;2023-04-08T00:53:03;9.70;99.90
4615;DHT22;2320;51.362;6.946;2023-04-08T00:55:28;9.70;99.90
4615;DHT22;2320;51.362;6.946;2023-04-08T00:57:54;9.70;99.90
4615;DHT22;2320;51.362;6.946;2023-04-08T01:00:20;9.60;99.90
4615;DHT22;2320;51.362;6.946;2023-04-08T01:03:04;9.70;99.90
4615;DHT22;2320;51.362;6.946;2023-04-08T01:07:56;9.70;99.90
4615;DHT22;2320;51.362;6.946;2023-04-08T01:10:27;9.80;99.90
4615;DHT22;2320;51.362;6.946;2023-04-08T01:12:55;9.60;99.90
4615;DHT22;2320;51.362;6.946;2023-04-08T01:15:20;9.50;99.90
4615;DHT22;2320;51.362;6.946;2023-04-08T01:17:46;9.40;99.90
4615;DHT22;2320;51.362;6.946;2023-04-08T01:20:12;9.30;99.90
4615;DHT22;2320;51.362;6.946;2023-04-08T01:25:22;9.30;99.90
4615;DHT22;2320;51.362;6.946;2023-04-08T01:27:48;9.30;99.90
4615;DHT22;2320;51.362;6.946;2023-04-08T01:30:14;9.20;99.90
4615;DHT22;2320;51.362;6.946;2023-04-08T01:32:41;9.40;99.90
4615;DHT22;2320;51.362;6.946;2023-04-08T01:35:08;9.30;99.90
4615;DHT22;2320;51.362;6.946;2023-04-08T01:37:34;9.20;99.90
4615;DHT22;2320;51.362;6.946;2023-04-08T01:40:00;9.30;99.90
4615;DHT22;2320;51.362;6.946;2023-04-08T01:42:27;9.30;99.90
4615;DHT22;2320;51.362;6.946;2023-04-08T01:44:54;9.40;99.90
4615;DHT22;2320;51.362;6.946;2023-04-08T01:47:20;9.30;99.90
4615;DHT22;2320;51.362;6.946;2023-04-08T01:49:45;9.30;99.90
4615;DHT22;2320;51.362;6.946;2023-04-08T01:52:11;9.30;99.90
4615;DHT22;2320;51.362;6.946;2023-04-08T01:54:37;9.20;99.90
4615;DHT22;2320;51.362;6.946;2023-04-08T01:57:05;9.40;99.90
4615;DHT22;2320;51.362;6.946;2023-04-08T01:59:33;9.40;99.90
4615;DHT22;2320;51.362;6.946;2023-04-08T02:01:59;9.20;99.90
4615;DHT22;2320;51.362;6.946;2023-04-08T02:04:26;9.30;99.90
4615;DHT22;2320;51.362;6.946;2023-04-08T02:06:51;9.30;99.90
4615;DHT22;2320;51.362;6.946;2023-04-08T02:09:17;9.30;99.90
4615;DHT22;2320;51.362;6.946;2023-04-08T02:11:42;9.30;99.90
4615;DHT22;2320;51.362;6.946;2023-04-08T02:14:07;9.20;99.90
4615;DHT22;2320;51.362;6.946;2023-04-08T02:16:37;9.20;99.90
4615;DHT22;2320;51.362;6.946;2023-04-08T02:19:09;9.20;99.90
4615;DHT22;2320;51.362;6.946;2023-04-08T02:21:37;9.10;99.90
4615;DHT22;2320;51.362;6.946;2023-04-08T02:24:06;9.10;99.90
4615;DHT22;2320;51.362;6.946;2023-04-08T02:26:32;9.10;99.90
4615;DHT22;2320;51.362;6.946;2023-04-08T02:29:00;9.20;99.90
4615;DHT22;2320;51.362;6.946;2023-04-08T02:31:26;9.20;99.90
4615;DHT22;2320;51.362;6.946;2023-04-08T02:33:52;9.10;99.90
4615;DHT22;2320;51.362;6.946;2023-04-08T02:36:18;9.20;99.90
4615;DHT22;2320;51.362;6.946;2023-04-08T02:38:48;9.00;99.90
4615;DHT22;2320;51.362;6.946;2023-04-08T02:41:14;8.90;99.90
4615;DHT22;2320;51.362;6.946;2023-04-08T02:43:40;8.90;99.90
4615;DHT22;2320;51.362;6.946;2023-04-08T02:46:05;9.00;99.90
4615;DHT22;2320;51.362;6.946;2023-04-08T02:48:31;8.90;99.90
4615;DHT22;2320;51.362;6.946;2023-04-08T02:50:57;8.90;99.90
4615;DHT22;2320;51.362;6.946;2023-04-08T02:53:22;8.80;99.90
4615;DHT22;2320;51.362;6.946;2023-04-08T02:55:48;8.80;99.90
4615;DHT22;2320;51.362;6.946;2023-04-08T02:58:13;8.90;99.90
4615;DHT22;2320;51.362;6.946;2023-04-08T03:00:39;8.70;99.90
4615;DHT22;2320;51.362;6.946;2023-04-08T03:03:05;8.80;99.90
4615;DHT22;2320;51.362;6.946;2023-04-08T03:05:31;8.70;99.90
4615;DHT22;2320;51.362;6.946;2023-04-08T03:07:56;8.70;99.90
4615;DHT22;2320;51.362;6.946;2023-04-08T03:10:21;8.70;99.90
4615;DHT22;2320;51.362;6.946;2023-04-08T03:12:47;8.80;99.90
4615;DHT22;2320;51.362;6.946;2023-04-08T03:15:12;8.70;99.90
4615;DHT22;2320;51.362;6.946;2023-04-08T03:17:38;8.80;99.90
4615;DHT22;2320;51.362;6.946;2023-04-08T03:20:04;8.80;99.90
4615;DHT22;2320;51.362;6.946;2023-04-08T03:22:30;8.80;99.90
4615;DHT22;2320;51.362;6.946;2023-04-08T03:24:55;8.70;99.90
4615;DHT22;2320;51.362;6.946;2023-04-08T03:27:21;8.90;99.90
4615;DHT22;2320;51.362;6.946;2023-04-08T03:29:46;8.90;99.90
4615;DHT22;2320;51.362;6.946;2023-04-08T03:32:12;8.90;99.90
4615;DHT22;2320;51.362;6.946;2023-04-08T03:34:38;8.80;99.90
4615;DHT22;2320;51.362;6.946;2023-04-08T03:37:03;8.60;99.90
4615;DHT22;2320;51.362;6.946;2023-04-08T03:39:28;8.50;99.90
4615;DHT22;2320;51.362;6.946;2023-04-08T03:41:55;8.60;99.90
4615;DHT22;2320;51.362;6.946;2023-04-08T03:44:20;8.50;99.90
4615;DHT22;2320;51.362;6.946;2023-04-08T03:46:46;8.50;99.90
4615;DHT22;2320;51.362;6.946;2023-04-08T03:49:11;8.50;99.90
4615;DHT22;2320;51.362;6.946;2023-04-08T03:51:37;8.40;99.90
4615;DHT22;2320;51.362;6.946;2023-04-08T03:54:02;8.40;99.90
4615;DHT22;2320;51.362;6.946;2023-04-08T03:56:28;8.50;99.90
4615;DHT22;2320;51.362;6.946;2023-04-08T03:58:53;8.40;99.90
4615;DHT22;2320;51.362;6.946;2023-04-08T04:01:18;8.40;99.90
4615;DHT22;2320;51.362;6.946;2023-04-08T04:03:44;8.40;99.90
4615;DHT22;2320;51.362;6.946;2023-04-08T04:06:09;8.30;99.90
4615;DHT22;2320;51.362;6.946;2023-04-08T04:08:35;8.30;99.90
4615;DHT22;2320;51.362;6.946;2023-04-08T04:11:01;8.40;99.90
4615;DHT22;2320;51.362;6.946;2023-04-08T04:13:26;8.40;99.90
4615;DHT22;2320;51.362;6.946;2023-04-08T04:15:52;8.40;99.90
4615;DHT22;2320;51.362;6.946;2023-04-08T04:18:17;8.40;99.90
4615;DHT22;2320;51.362;6.946;2023-04-08T04:20:42;8.40;99.90
4615;DHT22;2320;51.362;6.946;2023-04-08T04:23:08;8.40;99.90
4615;DHT22;2320;51.362;6.946;2023-04-08T04:25:34;8.40;99.90
4615;DHT22;2320;51.362;6.946;2023-04-08T04:27:59;8.50;99.90
4615;DHT22;2320;51.362;6.946;2023-04-08T04:30:26;8.50;99.90
4615;DHT22;2320;51.362;6.946;2023-04-08T04:32:51;8.50;99.90
4615;DHT22;2320;51.362;6.946;2023-04-08T04:35:17;8.70;99.90
4615;DHT22;2320;51.362;6.946;2023-04-08T04:37:42;8.40;99.90
4615;DHT22;2320;51.362;6.946;2023-04-08T04:40:08;8.40;99.90
4615;DHT22;2320;51.362;6.946;2023-04-08T04:42:33;8.40;99.90
4615;DHT22;2320;51.362;6.946;2023-04-08T04:44:59;8.40;99.90
4615;DHT22;2320;51.362;6.946;2023-04-08T04:47:25;8.50;99.90
4615;DHT22;2320;51.362;6.946;2023-04-08T04:49:50;8.50;99.90
4615;DHT22;2320;51.362;6.946;2023-04-08T04:52:16;8.50;99.90
4615;DHT22;2320;51.362;6.946;2023-04-08T04:54:41;8.60;99.90
4615;DHT22;2320;51.362;6.946;2023-04-08T04:57:07;8.50;99.90
4615;DHT22;2320;51.362;6.946;2023-04-08T04:59:32;8.70;99.90
4615;DHT22;2320;51.362;6.946;2023-04-08T05:01:57;8.60;99.90
4615;DHT22;2320;51.362;6.946;2023-04-08T05:04:23;8.50;99.90
4615;DHT22;2320;51.362;6.946;2023-04-08T05:06:49;8.60;99.90
4615;DHT22;2320;51.362;6.946;2023-04-08T05:09:14;8.60;99.90
4615;DHT22;2320;51.362;6.946;2023-04-08T05:11:40;8.60;99.90
4615;DHT22;2320;51.362;6.946;2023-04-08T05:14:05;8.50;99.90
4615;DHT22;2320;51.362;6.946;2023-04-08T05:16:31;8.40;99.90
4615;DHT22;2320;51.362;6.946;2023-04-08T05:18:57;8.30;99.90
4615;DHT22;2320;51.362;6.946;2023-04-08T05:21:22;8.30;99.90
4615;DHT22;2320;51.362;6.946;2023-04-08T05:23:48;8.40;99.90
4615;DHT22;2320;51.362;6.946;2023-04-08T05:26:15;8.40;99.90
4615;DHT22;2320;51.362;6.946;2023-04-08T05:28:41;8.50;99.90
4615;DHT22;2320;51.362;6.946;2023-04-08T05:31:06;8.40;99.90
4615;DHT22;2320;51.362;6.946;2023-04-08T05:33:32;8.50;99.90
4615;DHT22;2320;51.362;6.946;2023-04-08T05:35:57;8.50;99.90
4615;DHT22;2320;51.362;6.946;2023-04-08T05:38:23;8.50;99.90
4615;DHT22;2320;51.362;6.946;2023-04-08T05:40:48;8.50;99.90
4615;DHT22;2320;51.362;6.946;2023-04-08T05:43:13;8.60;99.90
4615;DHT22;2320;51.362;6.946;2023-04-08T05:45:39;8.60;99.90
4615;DHT22;2320;51.362;6.946;2023-04-08T05:48:04;8.60;99.90
4615;DHT22;2320;51.362;6.946;2023-04-08T05:50:30;8.70;99.90
4615;DHT22;2320;51.362;6.946;2023-04-08T05:52:55;8.80;99.90
4615;DHT22;2320;51.362;6.946;2023-04-08T05:55:21;8.90;99.90
4615;DHT22;2320;51.362;6.946;2023-04-08T05:57:46;8.90;99.90
4615;DHT22;2320;51.362;6.946;2023-04-08T06:00:12;8.80;99.90
4615;DHT22;2320;51.362;6.946;2023-04-08T06:02:37;8.80;99.90
4615;DHT22;2320;51.362;6.946;2023-04-08T06:05:03;9.00;99.90
4615;DHT22;2320;51.362;6.946;2023-04-08T06:07:28;8.90;99.90
4615;DHT22;2320;51.362;6.946;2023-04-08T06:09:54;9.00;99.90
4615;DHT22;2320;51.362;6.946;2023-04-08T06:12:20;8.90;99.90
4615;DHT22;2320;51.362;6.946;2023-04-08T06:14:46;8.90;99.90
4615;DHT22;2320;51.362;6.946;2023-04-08T06:17:11;8.90;99.90
4615;DHT22;2320;51.362;6.946;2023-04-08T06:19:37;9.00;99.90
4615;DHT22;2320;51.362;6.946;2023-04-08T06:22:02;9.10;99.90
4615;DHT22;2320;51.362;6.946;2023-04-08T06:24:28;9.10;99.90
4615;DHT22;2320;51.362;6.946;2023-04-08T06:26:54;9.10;99.90
4615;DHT22;2320;51.362;6.946;2023-04-08T06:29:20;9.00;99.90
4615;DHT22;2320;51.362;6.946;2023-04-08T06:31:46;9.00;99.90
4615;DHT22;2320;51.362;6.946;2023-04-08T06:34:11;9.00;99.90
4615;DHT22;2320;51.362;6.946;2023-04-08T06:36:37;9.10;99.90
4615;DHT22;2320;51.362;6.946;2023-04-08T06:39:02;9.10;99.90
4615;DHT22;2320;51.362;6.946;2023-04-08T06:41:28;9.20;99.90
4615;DHT22;2320;51.362;6.946;2023-04-08T06:43:54;9.20;99.90
4615;DHT22;2320;51.362;6.946;2023-04-08T06:46:19;9.30;99.90
4615;DHT22;2320;51.362;6.946;2023-04-08T06:48:45;9.40;99.90
4615;DHT22;2320;51.362;6.946;2023-04-08T06:51:11;9.40;99.90
4615;DHT22;2320;51.362;6.946;2023-04-08T06:53:36;9.40;99.90
4615;DHT22;2320;51.362;6.946;2023-04-08T06:56:02;9.50;99.90
4615;DHT22;2320;51.362;6.946;2023-04-08T06:58:27;9.40;99.90
4615;DHT22;2320;51.362;6.946;2023-04-08T07:00:54;9.40;99.90
4615;DHT22;2320;51.362;6.946;2023-04-08T07:03:22;9.50;99.90
4615;DHT22;2320;51.362;6.946;2023-04-08T07:05:47;9.60;99.90
4615;DHT22;2320;51.362;6.946;2023-04-08T07:08:13;9.70;99.90
4615;DHT22;2320;51.362;6.946;2023-04-08T07:10:38;9.70;99.90
4615;DHT22;2320;51.362;6.946;2023-04-08T07:13:04;9.80;99.90
4615;DHT22;2320;51.362;6.946;2023-04-08T07:15:29;9.80;99.90
4615;DHT22;2320;51.362;6.946;2023-04-08T07:17:55;9.90;99.90
4615;DHT22;2320;51.362;6.946;2023-04-08T07:20:21;10.00;99.90
4615;DHT22;2320;51.362;6.946;2023-04-08T07:22:47;10.20;99.90
4615;DHT22;2320;51.362;6.946;2023-04-08T07:25:12;10.20;99.90
4615;DHT22;2320;51.362;6.946;2023-04-08T07:27:38;10.30;99.90
4615;DHT22;2320;51.362;6.946;2023-04-08T07:30:03;10.30;99.90
4615;DHT22;2320;51.362;6.946;2023-04-08T07:32:29;10.30;99.90
4615;DHT22;2320;51.362;6.946;2023-04-08T07:34:54;10.30;99.90
4615;DHT22;2320;51.362;6.946;2023-04-08T07:37:20;10.40;99.90
4615;DHT22;2320;51.362;6.946;2023-04-08T07:39:45;10.50;99.90
4615;DHT22;2320;51.362;6.946;2023-04-08T07:42:11;10.50;99.90
4615;DHT22;2320;51.362;6.946;2023-04-08T07:44:36;10.50;99.90
4615;DHT22;2320;51.362;6.946;2023-04-08T07:47:03;10.50;99.90
4615;DHT22;2320;51.362;6.946;2023-04-08T07:49:28;10.60;99.90
4615;DHT22;2320;51.362;6.946;2023-04-08T07:51:54;10.70;99.90
4615;DHT22;2320;51.362;6.946;2023-04-08T07:54:19;10.70;99.90
4615;DHT22;2320;51.362;6.946;2023-04-08T07:56:45;10.90;99.90
4615;DHT22;2320;51.362;6.946;2023-04-08T07:59:11;10.90;99.90
4615;DHT22;2320;51.362;6.946;2023-04-08T08:01:36;11.00;99.90
4615;DHT22;2320;51.362;6.946;2023-04-08T08:04:01;11.00;99.90
4615;DHT22;2320;51.362;6.946;2023-04-08T08:06:27;11.10;99.90
4615;DHT22;2320;51.362;6.946;2023-04-08T08:08:53;11.10;99.90
4615;DHT22;2320;51.362;6.946;2023-04-08T08:11:18;11.20;99.90
4615;DHT22;2320;51.362;6.946;2023-04-08T08:13:44;11.20;99.90
4615;DHT22;2320;51.362;6.946;2023-04-08T08:16:09;11.10;99.90
4615;DHT22;2320;51.362;6.946;2023-04-08T08:18:36;11.10;99.90
4615;DHT22;2320;51.362;6.946;2023-04-08T08:21:01;11.00;99.90
4615;DHT22;2320;51.362;6.946;2023-04-08T08:23:27;11.00;99.90
4615;DHT22;2320;51.362;6.946;2023-04-08T08:25:59;11.00;99.90
4615;DHT22;2320;51.362;6.946;2023-04-08T08:28:25;10.90;99.90
4615;DHT22;2320;51.362;6.946;2023-04-08T08:30:50;10.80;99.90
4615;DHT22;2320;51.362;6.946;2023-04-08T08:33:16;10.90;99.90
4615;DHT22;2320;51.362;6.946;2023-04-08T08:35:41;10.90;99.90
4615;DHT22;2320;51.362;6.946;2023-04-08T08:38:06;10.90;99.90
4615;DHT22;2320;51.362;6.946;2023-04-08T08:40:32;10.80;99.90
4615;DHT22;2320;51.362;6.946;2023-04-08T08:42:57;10.80;99.90
4615;DHT22;2320;51.362;6.946;2023-04-08T08:45:23;10.80;99.90
4615;DHT22;2320;51.362;6.946;2023-04-08T08:47:49;11.00;99.90
4615;DHT22;2320;51.362;6.946;2023-04-08T08:50:15;11.00;99.90
4615;DHT22;2320;51.362;6.946;2023-04-08T08:52:46;11.00;99.90
4615;DHT22;2320;51.362;6.946;2023-04-08T08:55:12;10.90;99.90
4615;DHT22;2320;51.362;6.946;2023-04-08T08:57:37;11.00;99.90
4615;DHT22;2320;51.362;6.946;2023-04-08T09:00:03;11.00;99.90
4615;DHT22;2320;51.362;6.946;2023-04-08T09:02:29;11.10;99.90
4615;DHT22;2320;51.362;6.946;2023-04-08T09:04:59;11.00;99.90
4615;DHT22;2320;51.362;6.946;2023-04-08T09:07:25;11.00;99.90
4615;DHT22;2320;51.362;6.946;2023-04-08T09:09:54;11.10;99.90
4615;DHT22;2320;51.362;6.946;2023-04-08T09:12:20;11.30;99.90
4615;DHT22;2320;51.362;6.946;2023-04-08T09:14:45;11.60;99.90
4615;DHT22;2320;51.362;6.946;2023-04-08T09:17:11;11.90;99.90
4615;DHT22;2320;51.362;6.946;2023-04-08T09:19:37;12.40;99.90
4615;DHT22;2320;51.362;6.946;2023-04-08T09:22:06;12.70;99.90
4615;DHT22;2320;51.362;6.946;2023-04-08T09:24:32;12.80;99.90
4615;DHT22;2320;51.362;6.946;2023-04-08T09:26:58;12.80;99.90
4615;DHT22;2320;51.362;6.946;2023-04-08T09:29:24;12.70;99.90
4615;DHT22;2320;51.362;6.946;2023-04-08T09:31:54;12.90;99.90
4615;DHT22;2320;51.362;6.946;2023-04-08T09:34:20;12.90;99.90
4615;DHT22;2320;51.362;6.946;2023-04-08T09:36:50;13.30;99.90
4615;DHT22;2320;51.362;6.946;2023-04-08T09:39:16;13.60;99.90
4615;DHT22;2320;51.362;6.946;2023-04-08T09:41:42;13.70;99.90
4615;DHT22;2320;51.362;6.946;2023-04-08T09:44:11;14.20;99.90
4615;DHT22;2320;51.362;6.946;2023-04-08T09:49:12;15.60;99.90
4615;DHT22;2320;51.362;6.946;2023-04-08T09:51:47;16.10;99.90
4615;DHT22;2320;51.362;6.946;2023-04-08T09:54:14;17.00;99.90
4615;DHT22;2320;51.362;6.946;2023-04-08T09:56:53;17.80;99.90
4615;DHT22;2320;51.362;6.946;2023-04-08T09:59:21;19.10;99.90
4615;DHT22;2320;51.362;6.946;2023-04-08T10:01:49;19.90;99.90
4615;DHT22;2320;51.362;6.946;2023-04-08T10:04:17;19.90;99.90
4615;DHT22;2320;51.362;6.946;2023-04-08T10:06:46;19.80;99.90
4615;DHT22;2320;51.362;6.946;2023-04-08T10:09:15;19.50;99.90
4615;DHT22;2320;51.362;6.946;2023-04-08T10:11:41;18.90;99.90
4615;DHT22;2320;51.362;6.946;2023-04-08T10:14:08;18.50;99.90
4615;DHT22;2320;51.362;6.946;2023-04-08T10:16:33;17.80;99.90
4615;DHT22;2320;51.362;6.946;2023-04-08T10:18:59;17.40;99.90
4615;DHT22;2320;51.362;6.946;2023-04-08T10:24:00;16.60;99.90
4615;DHT22;2320;51.362;6.946;2023-04-08T10:26:31;15.60;99.90
4615;DHT22;2320;51.362;6.946;2023-04-08T10:29:23;14.80;99.90
4615;DHT22;2320;51.362;6.946;2023-04-08T10:31:49;14.10;99.90
4615;DHT22;2320;51.362;6.946;2023-04-08T10:36:41;13.40;99.90
4615;DHT22;2320;51.362;6.946;2023-04-08T10:39:06;13.20;99.90
4615;DHT22;2320;51.362;6.946;2023-04-08T10:41:32;13.20;99.90
4615;DHT22;2320;51.362;6.946;2023-04-08T10:43:57;13.20;99.90
4615;DHT22;2320;51.362;6.946;2023-04-08T10:46:26;12.90;99.90
4615;DHT22;2320;51.362;6.946;2023-04-08T10:49:00;12.80;99.90
4615;DHT22;2320;51.362;6.946;2023-04-08T10:51:29;12.70;99.90
4615;DHT22;2320;51.362;6.946;2023-04-08T10:53:56;12.70;99.90
4615;DHT22;2320;51.362;6.946;2023-04-08T10:56:29;12.70;99.90
4615;DHT22;2320;51.362;6.946;2023-04-08T10:58:54;12.50;99.90
4615;DHT22;2320;51.362;6.946;2023-04-08T11:01:24;12.60;99.90
4615;DHT22;2320;51.362;6.946;2023-04-08T11:03:50;12.50;99.90
4615;DHT22;2320;51.362;6.946;2023-04-08T11:06:15;12.50;99.90
4615;DHT22;2320;51.362;6.946;2023-04-08T11:08:41;12.40;99.90
4615;DHT22;2320;51.362;6.946;2023-04-08T11:11:09;12.20;99.90
4615;DHT22;2320;51.362;6.946;2023-04-08T11:13:39;11.90;99.90
4615;DHT22;2320;51.362;6.946;2023-04-08T11:16:05;11.70;99.90
4615;DHT22;2320;51.362;6.946;2023-04-08T11:18:32;11.80;99.90
4615;DHT22;2320;51.362;6.946;2023-04-08T11:20:58;11.60;99.90
4615;DHT22;2320;51.362;6.946;2023-04-08T11:23:24;11.60;99.90
4615;DHT22;2320;51.362;6.946;2023-04-08T11:25:50;11.60;99.90
4615;DHT22;2320;51.362;6.946;2023-04-08T11:28:16;11.60;99.90
4615;DHT22;2320;51.362;6.946;2023-04-08T11:30:41;11.60;99.90
4615;DHT22;2320;51.362;6.946;2023-04-08T11:33:07;11.70;99.90
4615;DHT22;2320;51.362;6.946;2023-04-08T11:35:33;11.50;99.90
4615;DHT22;2320;51.362;6.946;2023-04-08T11:37:58;11.60;99.90
4615;DHT22;2320;51.362;6.946;2023-04-08T11:40:24;11.60;99.90
4615;DHT22;2320;51.362;6.946;2023-04-08T11:42:50;11.70;99.90
4615;DHT22;2320;51.362;6.946;2023-04-08T11:45:17;11.90;99.90
4615;DHT22;2320;51.362;6.946;2023-04-08T11:47:43;12.10;99.90
4615;DHT22;2320;51.362;6.946;2023-04-08T11:50:10;12.10;99.90
4615;DHT22;2320;51.362;6.946;2023-04-08T11:52:45;12.00;99.90
4615;DHT22;2320;51.362;6.946;2023-04-08T11:55:11;11.90;99.90
4615;DHT22;2320;51.362;6.946;2023-04-08T11:57:37;12.00;99.90
4615;DHT22;2320;51.362;6.946;2023-04-08T12:00:06;12.10;99.90
4615;DHT22;2320;51.362;6.946;2023-04-08T12:02:31;12.30;99.90
4615;DHT22;2320;51.362;6.946;2023-04-08T12:04:57;12.30;99.90
4615;DHT22;2320;51.362;6.946;2023-04-08T12:07:22;12.40;99.90
4615;DHT22;2320;51.362;6.946;2023-04-08T12:09:48;12.50;99.90
4615;DHT22;2320;51.362;6.946;2023-04-08T12:12:13;12.60;99.90
4615;DHT22;2320;51.362;6.946;2023-04-08T12:14:38;12.50;99.90
4615;DHT22;2320;51.362;6.946;2023-04-08T12:17:04;12.40;99.90
4615;DHT22;2320;51.362;6.946;2023-04-08T12:19:29;12.60;99.90
4615;DHT22;2320;51.362;6.946;2023-04-08T12:21:55;12.70;99.90
4615;DHT22;2320;51.362;6.946;2023-04-08T12:24:20;12.90;99.90
4615;DHT22;2320;51.362;6.946;2023-04-08T12:26:46;13.00;99.90
4615;DHT22;2320;51.362;6.946;2023-04-08T12:29:11;13.00;99.90
4615;DHT22;2320;51.362;6.946;2023-04-08T12:31:37;13.00;99.90
4615;DHT22;2320;51.362;6.946;2023-04-08T12:34:02;13.30;99.90
4615;DHT22;2320;51.362;6.946;2023-04-08T12:36:27;13.30;99.90
4615;DHT22;2320;51.362;6.946;2023-04-08T12:38:53;12.90;99.90
4615;DHT22;2320;51.362;6.946;2023-04-08T12:41:18;12.80;99.90
4615;DHT22;2320;51.362;6.946;2023-04-08T12:43:44;12.90;99.90
4615;DHT22;2320;51.362;6.946;2023-04-08T12:46:09;13.10;99.90
4615;DHT22;2320;51.362;6.946;2023-04-08T12:48:35;13.50;99.90
4615;DHT22;2320;51.362;6.946;2023-04-08T12:51:00;13.60;99.90
4615;DHT22;2320;51.362;6.946;2023-04-08T12:53:26;13.80;99.90
4615;DHT22;2320;51.362;6.946;2023-04-08T12:55:51;13.90;99.90
4615;DHT22;2320;51.362;6.946;2023-04-08T12:58:21;14.00;99.90
4615;DHT22;2320;51.362;6.946;2023-04-08T13:00:47;13.80;99.90
4615;DHT22;2320;51.362;6.946;2023-04-08T13:03:13;13.50;99.90
4615;DHT22;2320;51.362;6.946;2023-04-08T13:05:41;13.40;99.90
4615;DHT22;2320;51.362;6.946;2023-04-08T13:08:06;13.30;99.90
4615;DHT22;2320;51.362;6.946;2023-04-08T13:10:32;13.30;99.90
4615;DHT22;2320;51.362;6.946;2023-04-08T13:12:57;13.20;99.90
4615;DHT22;2320;51.362;6.946;2023-04-08T13:15:23;13.30;99.90
4615;DHT22;2320;51.362;6.946;2023-04-08T13:17:48;13.50;99.90
4615;DHT22;2320;51.362;6.946;2023-04-08T13:20:14;13.70;99.90
4615;DHT22;2320;51.362;6.946;2023-04-08T13:22:39;13.90;99.90
4615;DHT22;2320;51.362;6.946;2023-04-08T13:25:05;13.90;99.90
4615;DHT22;2320;51.362;6.946;2023-04-08T13:27:31;14.30;99.90
4615;DHT22;2320;51.362;6.946;2023-04-08T13:29:57;14.50;99.90
4615;DHT22;2320;51.362;6.946;2023-04-08T13:32:22;14.30;99.90
4615;DHT22;2320;51.362;6.946;2023-04-08T13:34:48;14.00;99.90
4615;DHT22;2320;51.362;6.946;2023-04-08T13:37:13;14.00;99.90
4615;DHT22;2320;51.362;6.946;2023-04-08T13:39:38;14.00;99.90
4615;DHT22;2320;51.362;6.946;2023-04-08T13:42:04;14.10;99.90
4615;DHT22;2320;51.362;6.946;2023-04-08T13:44:29;14.30;99.90
4615;DHT22;2320;51.362;6.946;2023-04-08T13:46:57;14.20;99.90
4615;DHT22;2320;51.362;6.946;2023-04-08T13:49:22;14.20;99.90
4615;DHT22;2320;51.362;6.946;2023-04-08T13:51:48;14.30;99.90
4615;DHT22;2320;51.362;6.946;2023-04-08T13:54:13;14.50;99.90
4615;DHT22;2320;51.362;6.946;2023-04-08T13:56:39;14.30;99.90
4615;DHT22;2320;51.362;6.946;2023-04-08T13:59:04;14.30;99.90
4615;DHT22;2320;51.362;6.946;2023-04-08T14:01:30;14.30;99.90
4615;DHT22;2320;51.362;6.946;2023-04-08T14:03:55;14.10;99.90
4615;DHT22;2320;51.362;6.946;2023-04-08T14:06:21;13.90;99.90
4615;DHT22;2320;51.362;6.946;2023-04-08T14:08:46;13.90;99.90
4615;DHT22;2320;51.362;6.946;2023-04-08T14:11:12;14.00;99.90
4615;DHT22;2320;51.362;6.946;2023-04-08T14:13:37;14.30;99.90
4615;DHT22;2320;51.362;6.946;2023-04-08T14:16:03;14.40;99.90
4615;DHT22;2320;51.362;6.946;2023-04-08T14:18:28;14.20;99.90
4615;DHT22;2320;51.362;6.946;2023-04-08T14:20:54;13.90;99.90
4615;DHT22;2320;51.362;6.946;2023-04-08T14:23:20;13.90;99.90
4615;DHT22;2320;51.362;6.946;2023-04-08T14:25:45;13.90;99.90
4615;DHT22;2320;51.362;6.946;2023-04-08T14:28:11;13.70;99.90
4615;DHT22;2320;51.362;6.946;2023-04-08T14:30:36;13.60;99.90
4615;DHT22;2320;51.362;6.946;2023-04-08T14:33:02;13.50;99.90
4615;DHT22;2320;51.362;6.946;2023-04-08T14:35:29;13.60;99.90
4615;DHT22;2320;51.362;6.946;2023-04-08T14:37:55;13.50;99.90
4615;DHT22;2320;51.362;6.946;2023-04-08T14:40:21;13.20;99.90
4615;DHT22;2320;51.362;6.946;2023-04-08T14:42:46;13.30;99.90
4615;DHT22;2320;51.362;6.946;2023-04-08T14:45:14;12.90;99.90
4615;DHT22;2320;51.362;6.946;2023-04-08T14:47:39;12.70;99.90
4615;DHT22;2320;51.362;6.946;2023-04-08T14:50:05;12.70;99.90
4615;DHT22;2320;51.362;6.946;2023-04-08T14:52:31;12.80;99.90
4615;DHT22;2320;51.362;6.946;2023-04-08T14:54:56;12.80;99.90
4615;DHT22;2320;51.362;6.946;2023-04-08T14:57:22;12.80;99.90
4615;DHT22;2320;51.362;6.946;2023-04-08T14:59:47;12.80;99.90
4615;DHT22;2320;51.362;6.946;2023-04-08T15:02:12;12.70;99.90
4615;DHT22;2320;51.362;6.946;2023-04-08T15:04:38;12.70;99.90
4615;DHT22;2320;51.362;6.946;2023-04-08T15:07:03;12.50;99.90
4615;DHT22;2320;51.362;6.946;2023-04-08T15:09:29;12.50;99.90
4615;DHT22;2320;51.362;6.946;2023-04-08T15:11:54;12.40;99.90
4615;DHT22;2320;51.362;6.946;2023-04-08T15:14:20;12.60;99.90
4615;DHT22;2320;51.362;6.946;2023-04-08T15:16:46;12.60;99.90
4615;DHT22;2320;51.362;6.946;2023-04-08T15:19:11;12.60;99.90
4615;DHT22;2320;51.362;6.946;2023-04-08T15:21:37;12.50;99.90
4615;DHT22;2320;51.362;6.946;2023-04-08T15:24:02;12.60;99.90
4615;DHT22;2320;51.362;6.946;2023-04-08T15:26:27;12.50;99.90
4615;DHT22;2320;51.362;6.946;2023-04-08T15:28:53;12.60;99.90
4615;DHT22;2320;51.362;6.946;2023-04-08T15:31:18;12.60;99.90
4615;DHT22;2320;51.362;6.946;2023-04-08T15:33:44;12.70;99.90
4615;DHT22;2320;51.362;6.946;2023-04-08T15:36:10;12.60;99.90
4615;DHT22;2320;51.362;6.946;2023-04-08T15:38:35;12.50;99.90
4615;DHT22;2320;51.362;6.946;2023-04-08T15:41:01;12.10;99.90
4615;DHT22;2320;51.362;6.946;2023-04-08T15:43:26;11.90;99.90
4615;DHT22;2320;51.362;6.946;2023-04-08T15:45:52;11.80;99.90
4615;DHT22;2320;51.362;6.946;2023-04-08T15:48:18;11.90;99.90
4615;DHT22;2320;51.362;6.946;2023-04-08T15:50:43;12.30;99.90
4615;DHT22;2320;51.362;6.946;2023-04-08T15:53:09;12.20;99.90
4615;DHT22;2320;51.362;6.946;2023-04-08T15:55:38;12.10;99.90
4615;DHT22;2320;51.362;6.946;2023-04-08T15:58:04;12.00;99.90
4615;DHT22;2320;51.362;6.946;2023-04-08T16:00:30;12.00;99.90
4615;DHT22;2320;51.362;6.946;2023-04-08T16:02:56;12.00;99.90
4615;DHT22;2320;51.362;6.946;2023-04-08T16:05:21;12.10;99.90
4615;DHT22;2320;51.362;6.946;2023-04-08T16:07:46;12.10;99.90
4615;DHT22;2320;51.362;6.946;2023-04-08T16:10:12;12.00;99.90
4615;DHT22;2320;51.362;6.946;2023-04-08T16:12:37;12.00;99.90
4615;DHT22;2320;51.362;6.946;2023-04-08T16:15:03;12.00;99.90